createdAt,value
2022-08-27T00:02:17.088Z,14.13
2022-08-27T00:05:05.009Z,18.33
2022-08-27T00:07:52.262Z,15.75
2022-08-27T00:10:41.425Z,15.77
2022-08-27T00:13:28.721Z,17.13
2022-08-27T00:16:17.653Z,17.67
2022-08-27T00:19:05.077Z,13.20
2022-08-27T00:21:52.342Z,19.42
2022-08-27T00:24:48.577Z,13.05
2022-08-27T00:27:36.716Z,13.60
2022-08-27T00:30:24.099Z,13.00
2022-08-27T00:33:11.544Z,10.95
2022-08-27T00:35:59.374Z,15.05
2022-08-27T00:38:46.609Z,13.38
2022-08-27T00:41:34.526Z,10.68
2022-08-27T00:44:21.782Z,10.82
2022-08-27T00:47:17.005Z,11.80
2022-08-27T00:50:08.852Z,8.27
2022-08-27T00:53:01.906Z,11.63
2022-08-27T00:55:55.183Z,16.50
2022-08-27T00:58:46.351Z,16.70
2022-08-27T01:01:35.898Z,25.17
2022-08-27T01:04:23.428Z,27.33
2022-08-27T01:07:11.109Z,28.05
2022-08-27T01:10:01.014Z,26.65
2022-08-27T01:12:53.416Z,32.75
2022-08-27T01:15:41.921Z,31.67
2022-08-27T01:18:33.441Z,37.10
2022-08-27T01:21:34.381Z,38.67
2022-08-27T01:24:35.728Z,34.60
2022-08-27T01:27:26.679Z,30.40
2022-08-27T01:30:18.097Z,31.75
2022-08-27T01:33:17.090Z,26.55
2022-08-27T01:36:08.073Z,25.55
2022-08-27T01:38:55.841Z,24.55
2022-08-27T01:44:42.750Z,27.63
2022-08-27T01:47:30.692Z,34.58
2022-08-27T01:50:25.641Z,41.60
2022-08-27T01:53:16.363Z,38.53
2022-08-27T01:56:05.461Z,46.50
2022-08-27T01:58:52.732Z,46.53
2022-08-27T02:01:40.031Z,47.78
2022-08-27T02:04:27.445Z,51.75
2022-08-27T02:07:14.700Z,53.28
2022-08-27T02:10:02.063Z,60.75
2022-08-27T02:12:49.618Z,62.78
2022-08-27T02:15:37.938Z,58.28
2022-08-27T02:18:25.235Z,58.45
2022-08-27T02:21:12.820Z,56.70
2022-08-27T02:24:00.144Z,54.00
2022-08-27T02:26:47.421Z,54.45
2022-08-27T02:29:34.889Z,56.30
2022-08-27T02:32:26.983Z,57.10
2022-08-27T02:35:22.021Z,56.80
2022-08-27T02:40:57.114Z,57.13
2022-08-27T02:43:45.564Z,57.58
2022-08-27T02:46:33.321Z,56.97
2022-08-27T02:49:20.721Z,54.22
2022-08-27T02:52:08.179Z,57.58
2022-08-27T02:54:56.464Z,51.42
2022-08-27T02:57:43.940Z,57.28
2022-08-27T03:00:31.266Z,57.88
2022-08-27T03:03:18.616Z,58.25
2022-08-27T03:06:05.926Z,57.60
2022-08-27T03:08:53.662Z,54.30
2022-08-27T03:11:41.988Z,55.40
2022-08-27T03:14:29.484Z,51.30
2022-08-27T03:17:35.391Z,52.97
2022-08-27T03:20:24.219Z,55.33
2022-08-27T03:23:12.567Z,51.75
2022-08-27T03:26:02.617Z,51.50
2022-08-27T03:28:49.959Z,53.38
2022-08-27T03:31:37.670Z,51.22
2022-08-27T03:34:24.962Z,50.13
2022-08-27T03:37:12.273Z,50.13
2022-08-27T03:39:59.571Z,51.35
2022-08-27T03:42:46.854Z,56.15
2022-08-27T03:46:00.404Z,55.75
2022-08-27T03:48:41.468Z,52.25
2022-08-27T03:51:28.706Z,47.88
2022-08-27T03:54:16.128Z,48.85
2022-08-27T03:57:04.245Z,54.20
2022-08-27T03:59:53.038Z,57.63
2022-08-27T04:02:42.905Z,48.47
2022-08-27T04:05:30.220Z,45.70
2022-08-27T04:08:17.493Z,40.63
2022-08-27T04:11:06.745Z,43.42
2022-08-27T04:13:53.998Z,44.92
2022-08-27T04:16:41.516Z,41.00
2022-08-27T04:19:32.212Z,37.00
2022-08-27T04:22:20.874Z,37.90
2022-08-27T04:25:10.459Z,36.33
2022-08-27T04:27:59.192Z,36.08
2022-08-27T04:30:47.142Z,34.78
2022-08-27T04:33:34.604Z,34.03
2022-08-27T04:36:21.927Z,34.35
2022-08-27T04:39:09.178Z,35.75
2022-08-27T04:41:59.256Z,47.80
2022-08-27T04:44:47.162Z,38.00
2022-08-27T04:47:35.127Z,38.30
2022-08-27T04:50:22.362Z,40.10
2022-08-27T04:53:13.544Z,39.25
2022-08-27T04:56:00.768Z,34.33
2022-08-27T04:58:49.262Z,35.10
2022-08-27T05:01:37.869Z,34.65
2022-08-27T05:04:26.696Z,36.22
2022-08-27T05:07:14.069Z,38.80
2022-08-27T05:10:01.331Z,33.55
2022-08-27T05:12:50.107Z,35.22
2022-08-27T05:15:38.389Z,38.03
2022-08-27T05:18:25.989Z,39.50
2022-08-27T05:21:33.701Z,37.72
2022-08-27T05:24:21.958Z,39.72
2022-08-27T05:27:09.888Z,34.13
2022-08-27T05:30:00.256Z,40.55
2022-08-27T05:32:47.577Z,36.35
2022-08-27T05:35:42.591Z,31.70
2022-08-27T05:38:30.637Z,30.63
2022-08-27T05:41:21.201Z,28.35
2022-08-27T05:44:36.726Z,29.98
2022-08-27T05:47:17.232Z,28.13
2022-08-27T05:50:05.794Z,30.75
2022-08-27T05:52:53.686Z,26.50
2022-08-27T05:55:45.278Z,25.85
2022-08-27T05:58:51.141Z,27.42
2022-08-27T06:01:45.637Z,25.40
2022-08-27T06:04:33.052Z,27.88
2022-08-27T06:07:20.545Z,24.98
2022-08-27T06:10:08.729Z,24.42
2022-08-27T06:12:57.150Z,21.95
2022-08-27T06:15:44.562Z,23.55
2022-08-27T06:18:36.509Z,24.55
2022-08-27T06:21:24.956Z,27.17
2022-08-27T06:24:13.338Z,24.23
2022-08-27T06:27:00.597Z,25.58
2022-08-27T06:29:47.893Z,25.38
2022-08-27T06:32:35.133Z,21.52
2022-08-27T06:35:22.425Z,22.27
2022-08-27T06:38:09.795Z,21.15
2022-08-27T06:40:58.150Z,24.92
2022-08-27T06:43:45.794Z,21.63
2022-08-27T06:46:33.160Z,19.38
2022-08-27T06:49:20.460Z,23.65
2022-08-27T06:52:07.887Z,23.40
2022-08-27T06:54:56.627Z,22.60
2022-08-27T06:57:43.878Z,26.40
2022-08-27T07:00:31.156Z,23.23
2022-08-27T07:03:18.493Z,21.88
2022-08-27T07:06:06.456Z,21.33
2022-08-27T07:08:54.109Z,19.95
2022-08-27T07:11:41.405Z,18.98
2022-08-27T07:14:32.972Z,16.58
2022-08-27T07:17:24.311Z,19.92
2022-08-27T07:20:13.343Z,18.30
2022-08-27T07:23:00.606Z,19.58
2022-08-27T07:25:48.312Z,20.60
2022-08-27T07:28:36.412Z,19.27
2022-08-27T07:31:24.265Z,17.60
2022-08-27T07:34:11.548Z,18.33
2022-08-27T07:36:58.831Z,22.77
2022-08-27T07:39:46.125Z,19.63
2022-08-27T07:42:51.981Z,21.02
2022-08-27T07:45:48.145Z,19.77
2022-08-27T07:48:36.482Z,22.92
2022-08-27T07:51:28.260Z,22.42
2022-08-27T07:54:16.383Z,23.35
2022-08-27T07:57:04.377Z,21.10
2022-08-27T07:59:53.136Z,19.25
2022-08-27T08:02:42.144Z,19.67
2022-08-27T08:05:36.780Z,20.75
2022-08-27T08:08:24.950Z,18.90
2022-08-27T08:11:16.639Z,18.63
2022-08-27T08:14:03.933Z,17.38
2022-08-27T08:19:19.820Z,18.23
2022-08-27T08:22:08.468Z,19.08
2022-08-27T08:24:55.868Z,20.97
2022-08-27T08:27:43.616Z,19.35
2022-08-27T08:30:33.154Z,18.80
2022-08-27T08:33:23.557Z,16.50
2022-08-27T08:36:13.573Z,16.48
2022-08-27T08:39:00.969Z,21.95
2022-08-27T08:41:55.400Z,18.77
2022-08-27T08:44:49.456Z,18.15
2022-08-27T08:47:45.605Z,19.80
2022-08-27T08:50:53.999Z,19.17
2022-08-27T08:53:47.578Z,20.10
2022-08-27T08:57:07.900Z,19.08
2022-08-27T09:00:09.473Z,20.10
2022-08-27T09:02:57.292Z,18.30
2022-08-27T09:05:54.630Z,24.00
2022-08-27T09:08:43.523Z,17.27
2022-08-27T09:11:44.372Z,20.08
2022-08-27T09:14:41.205Z,19.42
2022-08-27T09:17:34.646Z,23.55
2022-08-27T09:20:25.644Z,25.88
2022-08-27T09:23:16.272Z,26.02
2022-08-27T09:26:03.603Z,29.35
2022-08-27T09:29:18.475Z,28.45
2022-08-27T09:32:09.245Z,26.45
2022-08-27T09:35:01.496Z,29.05
2022-08-27T09:37:53.090Z,25.25
2022-08-27T09:40:48.864Z,25.40
2022-08-27T09:43:36.908Z,27.27
2022-08-27T09:46:26.953Z,29.10
2022-08-27T09:49:16.389Z,27.88
2022-08-27T09:52:04.289Z,30.17
2022-08-27T09:54:55.598Z,27.05
2022-08-27T09:57:43.005Z,26.67
2022-08-27T10:00:39.634Z,29.35
2022-08-27T10:03:31.365Z,24.02
2022-08-27T10:06:32.541Z,25.00
2022-08-27T10:09:32.993Z,23.05
2022-08-27T10:12:55.328Z,22.45
2022-08-27T10:15:57.441Z,25.33
2022-08-27T10:19:22.377Z,21.48
2022-08-27T10:23:07.108Z,21.63
2022-08-27T10:26:16.951Z,21.20
2022-08-27T10:29:19.578Z,23.00
2022-08-27T10:32:31.186Z,19.00
2022-08-27T10:35:32.131Z,19.80
2022-08-27T10:38:31.369Z,22.45
2022-08-27T10:41:35.243Z,23.33
2022-08-27T10:45:02.441Z,19.20
2022-08-27T10:48:10.959Z,19.63
2022-08-27T10:50:58.359Z,20.10
2022-08-27T10:53:59.788Z,19.55
2022-08-27T10:57:31.747Z,23.63
2022-08-27T11:00:23.130Z,17.70
2022-08-27T11:03:42.015Z,25.40
2022-08-27T11:06:54.369Z,16.42
2022-08-27T11:10:18.472Z,19.95
2022-08-27T11:13:14.658Z,16.60
2022-08-27T11:16:11.624Z,20.50
2022-08-27T11:19:05.903Z,15.25
2022-08-27T11:22:01.246Z,13.93
2022-08-27T11:25:10.013Z,16.92
2022-08-27T11:27:59.095Z,13.32
2022-08-27T11:31:04.204Z,16.20
2022-08-27T11:34:12.814Z,13.90
2022-08-27T11:37:37.857Z,14.10
2022-08-27T11:40:49.285Z,14.30
2022-08-27T11:43:37.530Z,18.05
2022-08-27T11:46:27.781Z,12.88
2022-08-27T11:49:29.761Z,17.25
2022-08-27T11:52:26.075Z,12.68
2022-08-27T11:55:19.371Z,16.30
2022-08-27T11:58:08.354Z,17.55
2022-08-27T12:00:55.951Z,16.33
2022-08-27T12:03:43.490Z,14.63
2022-08-27T12:06:41.762Z,16.80
2022-08-27T12:09:29.666Z,16.00
2022-08-27T12:12:49.146Z,14.27
2022-08-27T12:15:48.374Z,16.58
2022-08-27T12:18:42.612Z,17.08
2022-08-27T12:21:51.394Z,16.00
2022-08-27T12:24:58.676Z,16.63
2022-08-27T12:27:55.449Z,17.60
2022-08-27T12:30:50.415Z,15.93
2022-08-27T12:33:44.853Z,15.05
2022-08-27T12:36:34.802Z,17.17
2022-08-27T12:39:29.589Z,16.15
2022-08-27T12:42:19.802Z,16.00
2022-08-27T12:45:07.571Z,15.73
2022-08-27T12:47:55.662Z,17.40
2022-08-27T12:50:42.985Z,17.17
2022-08-27T12:53:32.880Z,15.68
2022-08-27T12:56:37.880Z,24.60
2022-08-27T12:59:43.137Z,14.00
2022-08-27T13:03:16.133Z,17.40
2022-08-27T13:06:26.998Z,13.68
2022-08-27T13:09:14.278Z,13.20
2022-08-27T13:12:05.493Z,15.45
2022-08-27T13:14:56.965Z,13.10
2022-08-27T13:17:46.512Z,13.20
2022-08-27T13:20:37.612Z,13.88
2022-08-27T13:23:27.154Z,18.00
2022-08-27T13:26:14.396Z,13.85
2022-08-27T13:29:03.912Z,13.80
2022-08-27T13:31:51.817Z,13.85
2022-08-27T13:34:40.932Z,13.23
2022-08-27T13:37:44.712Z,14.18
2022-08-27T13:40:35.194Z,16.98
2022-08-27T13:43:33.155Z,12.07
2022-08-27T13:46:24.115Z,13.77
2022-08-27T13:49:17.596Z,14.93
2022-08-27T13:52:36.967Z,18.25
2022-08-27T13:58:14.941Z,18.98
2022-08-27T14:01:14.209Z,18.58
2022-08-27T14:04:07.761Z,17.73
2022-08-27T14:06:55.212Z,15.38
2022-08-27T14:09:54.263Z,16.55
2022-08-27T14:12:42.299Z,15.38
2022-08-27T14:15:38.359Z,14.15
2022-08-27T14:18:54.970Z,14.77
2022-08-27T14:21:40.870Z,17.70
2022-08-27T14:24:31.182Z,15.18
2022-08-27T14:27:20.035Z,14.63
2022-08-27T14:30:09.585Z,17.75
2022-08-27T14:33:01.873Z,18.15
2022-08-27T14:35:49.236Z,15.80
2022-08-27T14:38:40.825Z,16.50
2022-08-27T14:41:28.333Z,19.23
2022-08-27T14:44:15.569Z,14.95
2022-08-27T14:47:09.682Z,15.85
2022-08-27T14:49:57.770Z,14.95
2022-08-27T14:52:45.093Z,12.55
2022-08-27T14:55:32.374Z,17.15
2022-08-27T14:58:20.298Z,12.30
2022-08-27T15:01:08.071Z,18.23
2022-08-27T15:03:57.344Z,14.75
2022-08-27T15:06:44.801Z,10.90
2022-08-27T15:09:32.281Z,15.38
2022-08-27T15:12:26.410Z,13.73
2022-08-27T15:15:14.933Z,12.38
2022-08-27T15:18:02.177Z,13.73
2022-08-27T15:20:49.933Z,12.63
2022-08-27T15:23:37.641Z,15.23
2022-08-27T15:26:25.006Z,12.40
2022-08-27T15:29:12.721Z,12.25
2022-08-27T15:32:00.058Z,11.77
2022-08-27T15:34:47.353Z,12.20
2022-08-27T15:37:35.226Z,12.27
2022-08-27T15:40:24.036Z,15.82
2022-08-27T15:43:12.594Z,16.65
2022-08-27T15:45:59.868Z,14.40
2022-08-27T15:48:47.190Z,14.75
2022-08-27T15:51:35.053Z,11.95
2022-08-27T15:54:22.339Z,15.23
2022-08-27T15:57:10.024Z,15.60
2022-08-27T15:59:57.617Z,13.55
2022-08-27T16:02:46.191Z,12.82
2022-08-27T16:05:36.678Z,13.85
2022-08-27T16:08:24.264Z,14.27
2022-08-27T16:11:11.686Z,10.88
2022-08-27T16:13:58.994Z,12.10
2022-08-27T16:16:47.269Z,12.05
2022-08-27T16:19:41.225Z,16.05
2022-08-27T16:22:28.664Z,13.38
2022-08-27T16:25:18.608Z,8.57
2022-08-27T16:28:08.004Z,13.48
2022-08-27T16:30:56.691Z,10.38
2022-08-27T16:33:44.157Z,16.65
2022-08-27T16:36:31.519Z,11.93
2022-08-27T16:39:18.777Z,10.00
2022-08-27T16:42:10.072Z,12.07
2022-08-27T16:44:57.536Z,17.27
2022-08-27T16:48:03.216Z,11.82
2022-08-27T16:50:50.560Z,11.57
2022-08-27T16:53:41.219Z,11.15
2022-08-27T16:56:28.792Z,11.57
2022-08-27T16:59:16.124Z,11.50
2022-08-27T17:02:03.980Z,13.13
2022-08-27T17:05:07.369Z,8.80
2022-08-27T17:07:59.369Z,8.05
2022-08-27T17:10:51.322Z,11.10
2022-08-27T17:13:39.620Z,12.30
2022-08-27T17:16:32.540Z,13.10
2022-08-27T17:19:21.916Z,7.05
2022-08-27T17:22:09.415Z,11.15
2022-08-27T17:24:56.665Z,8.35
2022-08-27T17:27:43.944Z,11.20
2022-08-27T17:30:31.874Z,10.85
2022-08-27T17:33:36.045Z,12.93
2022-08-27T17:36:23.918Z,10.32
2022-08-27T17:39:14.560Z,7.75
2022-08-27T17:42:01.893Z,6.70
2022-08-27T17:44:49.285Z,11.90
2022-08-27T17:47:36.525Z,8.32
2022-08-27T17:50:23.838Z,7.55
2022-08-27T17:53:11.393Z,11.40
2022-08-27T17:55:58.744Z,8.45
2022-08-27T17:58:47.121Z,8.75
2022-08-27T18:01:39.953Z,11.20
2022-08-27T18:04:27.290Z,9.68
2022-08-27T18:07:15.338Z,11.43
2022-08-27T18:10:03.120Z,8.48
2022-08-27T18:12:52.409Z,10.23
2022-08-27T18:15:42.760Z,12.05
2022-08-27T18:18:30.479Z,10.88
2022-08-27T18:21:25.467Z,11.13
2022-08-27T18:24:14.005Z,8.45
2022-08-27T18:27:01.481Z,12.52
2022-08-27T18:29:49.880Z,11.48
2022-08-27T18:32:41.029Z,11.55
2022-08-27T18:35:30.849Z,12.60
2022-08-27T18:38:18.416Z,11.95
2022-08-27T18:41:06.421Z,12.63
2022-08-27T18:43:56.083Z,11.35
2022-08-27T18:46:43.441Z,9.88
2022-08-27T18:49:30.719Z,15.57
2022-08-27T18:52:21.745Z,12.38
2022-08-27T18:55:12.131Z,11.70
2022-08-27T18:57:59.519Z,11.13
2022-08-27T19:00:51.262Z,9.80
2022-08-27T19:03:43.931Z,14.23
2022-08-27T19:06:31.530Z,15.50
2022-08-27T19:09:19.088Z,15.82
2022-08-27T19:12:06.625Z,11.73
2022-08-27T19:14:53.933Z,13.68
2022-08-27T19:17:43.672Z,10.15
2022-08-27T19:20:31.409Z,8.18
2022-08-27T19:23:22.314Z,11.82
2022-08-27T19:26:24.534Z,8.20
2022-08-27T19:29:12.180Z,11.30
2022-08-27T19:31:59.537Z,14.98
2022-08-27T19:34:47.618Z,14.90
2022-08-27T19:37:39.673Z,11.93
2022-08-27T19:40:28.864Z,15.40
2022-08-27T19:43:16.136Z,10.07
2022-08-27T19:46:05.143Z,12.35
2022-08-27T19:48:55.443Z,11.80
2022-08-27T19:51:42.788Z,11.25
2022-08-27T19:54:33.745Z,15.23
2022-08-27T19:57:21.378Z,9.77
2022-08-27T20:00:11.359Z,10.07
2022-08-27T20:02:58.641Z,11.15
2022-08-27T20:05:49.670Z,11.80
2022-08-27T20:08:36.973Z,10.48
2022-08-27T20:11:24.508Z,10.13
2022-08-27T20:14:12.790Z,8.02
2022-08-27T20:17:00.173Z,14.52
2022-08-27T20:19:47.451Z,15.35
2022-08-27T20:25:24.937Z,12.27
2022-08-27T20:28:37.753Z,16.55
2022-08-27T20:31:19.863Z,10.82
2022-08-27T20:34:07.380Z,10.80
2022-08-27T20:36:54.748Z,13.32
2022-08-27T20:39:43.404Z,10.80
2022-08-27T20:42:30.722Z,10.13
2022-08-27T20:45:18.948Z,9.43
2022-08-27T20:48:06.381Z,11.52
2022-08-27T20:50:53.771Z,10.90
2022-08-27T20:53:41.030Z,9.07
2022-08-27T20:56:28.505Z,8.50
2022-08-27T20:59:34.564Z,10.40
2022-08-27T21:02:28.101Z,14.02
2022-08-27T21:05:17.516Z,10.15
2022-08-27T21:08:06.259Z,12.38
2022-08-27T21:10:56.751Z,13.45
2022-08-27T21:13:55.636Z,9.98
2022-08-27T21:16:43.652Z,10.57
2022-08-27T21:19:31.298Z,13.80
2022-08-27T21:22:19.146Z,10.25
2022-08-27T21:25:07.436Z,11.63
2022-08-27T21:27:56.777Z,12.05
2022-08-27T21:30:45.070Z,12.82
2022-08-27T21:33:34.062Z,7.40
2022-08-27T21:36:26.709Z,10.35
2022-08-27T21:39:14.067Z,9.55
2022-08-27T21:42:02.059Z,8.35
2022-08-27T21:44:49.485Z,10.85
2022-08-27T21:47:36.880Z,9.52
2022-08-27T21:50:25.629Z,11.43
2022-08-27T21:53:12.973Z,9.20
2022-08-27T21:56:00.241Z,12.55
2022-08-27T21:58:47.509Z,10.00
2022-08-27T22:01:34.801Z,11.45
2022-08-27T22:04:22.409Z,7.30
2022-08-27T22:07:10.965Z,13.18
2022-08-27T22:09:58.285Z,9.95
2022-08-27T22:12:45.590Z,10.35
2022-08-27T22:15:33.224Z,10.70
2022-08-27T22:18:23.049Z,17.55
2022-08-27T22:21:11.518Z,10.50
2022-08-27T22:23:59.371Z,14.23
2022-08-27T22:26:46.689Z,8.40
2022-08-27T22:29:34.097Z,7.30
2022-08-27T22:32:21.341Z,8.60
2022-08-27T22:35:10.041Z,8.05
2022-08-27T22:37:57.374Z,11.48
2022-08-27T22:40:45.721Z,12.52
2022-08-27T22:43:35.457Z,11.90
2022-08-27T22:46:22.743Z,10.43
2022-08-27T22:49:10.148Z,10.88
2022-08-27T22:51:57.420Z,15.18
2022-08-27T22:54:44.736Z,11.30
2022-08-27T22:57:32.160Z,12.80
2022-08-27T23:00:35.577Z,10.07
2022-08-27T23:03:23.035Z,14.27
2022-08-27T23:06:10.371Z,11.60
2022-08-27T23:08:57.804Z,16.38
2022-08-27T23:11:45.136Z,10.32
2022-08-27T23:14:33.286Z,12.18
2022-08-27T23:17:21.403Z,13.20
2022-08-27T23:20:10.778Z,12.05
2022-08-27T23:22:58.030Z,11.05
2022-08-27T23:26:03.693Z,12.32
2022-08-27T23:28:50.997Z,13.35
2022-08-27T23:31:38.800Z,13.80
2022-08-27T23:34:26.698Z,13.00
2022-08-27T23:37:13.989Z,12.68
2022-08-27T23:40:01.649Z,11.60
2022-08-27T23:42:49.503Z,10.68
2022-08-27T23:45:40.896Z,11.00
2022-08-27T23:48:28.353Z,11.30
2022-08-27T23:51:15.664Z,8.98
2022-08-27T23:54:02.990Z,9.88
2022-08-27T23:56:50.288Z,10.43
2022-08-27T23:59:37.792Z,12.35
